Time;durP1;ratioP1;P1;durP2;ratioP2;P2;SDS_P1;SDS_P2;PMS_P1;PMS_P2;Temp;Humidity;BMP_temperature;BMP_pressure;BME280_temperature;BME280_humidity;BME280_pressure;Samples;Min_cycle;Max_cycle;Signal;HPM_P1;HPM_P2
2022/12/30 00:00:29;;;;;;;4.27;2.00;;;8.10;99.90;;;;;;4974024;28;20222;-52
2022/12/30 00:02:58;;;;;;;2.83;1.40;;;8.20;99.90;;;;;;4972416;28;20230;-52
2022/12/30 00:05:25;;;;;;;1.20;1.13;;;8.30;99.90;;;;;;4973215;28;20223;-52
2022/12/30 00:07:52;;;;;;;1.80;1.70;;;8.30;99.90;;;;;;4971946;28;20585;-52
2022/12/30 00:10:19;;;;;;;2.60;1.37;;;8.30;99.90;;;;;;4971518;28;20265;-52
2022/12/30 00:35:20;;;;;;;1.20;0.97;;;8.10;99.90;;;;;;4962480;28;20225;-53
2022/12/30 00:37:48;;;;;;;1.03;0.90;;;8.10;99.90;;;;;;4967532;28;20281;-52
2022/12/30 00:40:15;;;;;;;2.70;1.47;;;8.10;99.90;;;;;;4972331;28;20285;-52
2022/12/30 00:45:27;;;;;;;1.60;1.47;;;8.10;99.90;;;;;;4966341;28;20283;-52
2022/12/30 00:47:55;;;;;;;1.93;1.27;;;8.10;99.90;;;;;;4971624;28;20206;-52
2022/12/30 00:58:20;;;;;;;1.13;1.10;;;7.90;99.90;;;;;;4988377;28;20243;-52
2022/12/30 01:00:47;;;;;;;1.37;1.17;;;7.90;99.90;;;;;;4977682;28;20732;-49
2022/12/30 01:03:14;;;;;;;1.37;1.27;;;7.90;99.90;;;;;;4982833;28;20219;-51
2022/12/30 01:05:42;;;;;;;1.00;1.00;;;7.90;99.90;;;;;;4974510;28;20737;-49
2022/12/30 01:08:09;;;;;;;2.03;1.50;;;7.90;99.90;;;;;;4973036;28;20206;-49
2022/12/30 01:10:39;;;;;;;2.47;1.30;;;7.80;99.90;;;;;;4966670;28;20645;-50
2022/12/30 01:13:06;;;;;;;1.37;1.20;;;7.80;99.90;;;;;;4973479;28;20196;-51
2022/12/30 01:15:33;;;;;;;1.00;1.00;;;7.80;99.90;;;;;;4974446;28;20199;-50
2022/12/30 01:18:00;;;;;;;0.10;0.10;;;7.80;99.90;;;;;;4968699;28;20512;-50
2022/12/30 01:20:28;;;;;;;0.00;0.00;;;7.90;99.90;;;;;;4969618;28;20630;-49
2022/12/30 01:22:59;;;;;;;0.00;0.00;;;7.90;99.90;;;;;;4970541;28;20199;-49
2022/12/30 01:25:26;;;;;;;0.00;0.00;;;8.00;99.90;;;;;;4969754;28;20233;-49
2022/12/30 01:27:53;;;;;;;0.00;0.00;;;8.10;99.90;;;;;;4970653;28;20200;-49
2022/12/30 01:30:20;;;;;;;0.30;0.00;;;8.10;99.90;;;;;;4967814;28;20206;-49
2022/12/30 01:32:47;;;;;;;0.00;0.00;;;8.00;99.90;;;;;;4964587;28;20641;-50
2022/12/30 01:35:14;;;;;;;0.00;0.00;;;7.90;99.90;;;;;;4974274;28;20226;-49
2022/12/30 01:37:41;;;;;;;0.10;0.00;;;7.90;99.90;;;;;;4971815;28;20739;-50
2022/12/30 01:40:11;;;;;;;0.03;0.03;;;8.00;99.90;;;;;;4965887;28;20206;-50
2022/12/30 01:42:41;;;;;;;0.00;0.00;;;7.90;99.90;;;;;;4972103;28;20210;-49
2022/12/30 01:45:18;;;;;;;0.00;0.00;;;7.90;99.90;;;;;;4972415;28;20295;-50
2022/12/30 01:47:49;;;;;;;0.00;0.00;;;7.80;99.90;;;;;;4973227;28;20212;-50
2022/12/30 01:50:30;;;;;;;0.00;0.00;;;7.80;99.90;;;;;;4971454;28;20210;-49
2022/12/30 01:53:03;;;;;;;0.03;0.00;;;8.00;99.90;;;;;;4972169;28;20276;-49
2022/12/30 01:55:34;;;;;;;0.00;0.00;;;8.00;99.90;;;;;;4992374;28;20280;-50
2022/12/30 01:58:04;;;;;;;0.10;0.10;;;7.90;99.90;;;;;;4976088;28;20210;-51
2022/12/30 02:00:31;;;;;;;0.20;0.20;;;7.80;99.90;;;;;;4973387;28;20213;-50
2022/12/30 02:02:59;;;;;;;0.07;0.07;;;7.80;99.90;;;;;;4975947;28;20193;-50
2022/12/30 02:05:31;;;;;;;0.13;0.10;;;7.70;99.90;;;;;;4984899;28;20741;-49
2022/12/30 02:08:08;;;;;;;0.00;0.00;;;7.70;99.90;;;;;;4984971;28;20199;-48
2022/12/30 02:10:39;;;;;;;0.00;0.00;;;7.70;99.90;;;;;;4985065;28;20283;-48
2022/12/30 02:13:06;;;;;;;0.10;0.00;;;7.70;99.90;;;;;;4979189;28;20724;-49
2022/12/30 02:15:43;;;;;;;0.00;0.00;;;7.50;99.90;;;;;;4972694;28;20206;-50
2022/12/30 02:18:18;;;;;;;0.03;0.03;;;7.50;99.90;;;;;;4973639;28;20202;-49
2022/12/30 02:21:14;;;;;;;0.00;0.00;;;7.50;99.90;;;;;;4973382;28;20208;-48
2022/12/30 02:24:19;;;;;;;0.00;0.00;;;7.50;99.90;;;;;;4963517;28;20261;-50
2022/12/30 02:27:22;;;;;;;0.10;0.10;;;7.40;99.90;;;;;;4989105;28;20615;-49
2022/12/30 02:30:03;;;;;;;0.10;0.10;;;7.30;99.90;;;;;;4971804;28;20260;-48
2022/12/30 02:32:42;;;;;;;0.00;0.00;;;7.30;99.90;;;;;;4971373;28;20285;-49
2022/12/30 02:35:19;;;;;;;0.47;0.00;;;7.20;99.90;;;;;;4980485;28;20220;-49
2022/12/30 02:37:55;;;;;;;0.10;0.10;;;7.30;99.90;;;;;;4974708;28;20265;-49
2022/12/30 02:44:36;;;;;;;0.00;0.00;;;7.20;99.90;;;;;;4975514;28;20214;-49
2022/12/30 02:46:06;;;;;;;0.60;0.00;;;7.10;99.90;;;;;;4974282;28;20414;-49
2022/12/30 02:48:39;;;;;;;0.10;0.10;;;7.20;99.90;;;;;;4984419;28;20251;-49
2022/12/30 02:53:52;;;;;;;0.10;0.10;;;7.10;99.90;;;;;;4978483;28;20264;-48
2022/12/30 02:56:19;;;;;;;0.00;0.00;;;7.00;99.90;;;;;;4979032;28;20210;-49
2022/12/30 03:03:56;;;;;;;0.07;0.00;;;7.00;99.90;;;;;;4974327;28;20247;-49
2022/12/30 03:04:41;;;;;;;0.30;0.10;;;6.90;99.90;;;;;;4969477;28;20232;-48
2022/12/30 03:07:23;;;;;;;0.00;0.00;;;6.80;99.90;;;;;;4979713;28;20251;-48
2022/12/30 03:12:57;;;;;;;0.00;0.00;;;6.80;99.90;;;;;;4974116;28;20229;-49
2022/12/30 03:15:31;;;;;;;0.83;0.00;;;6.80;99.90;;;;;;4984224;28;20283;-49
2022/12/30 03:17:58;;;;;;;0.00;0.00;;;6.70;99.90;;;;;;4973602;28;20202;-49
2022/12/30 03:20:28;;;;;;;0.00;0.00;;;6.70;99.90;;;;;;4972603;28;20268;-49
2022/12/30 03:28:35;;;;;;;0.50;0.00;;;6.60;99.90;;;;;;4980590;28;20207;-48
2022/12/30 03:31:06;;;;;;;0.30;0.30;;;6.60;99.90;;;;;;4987006;28;20840;-49
2022/12/30 03:33:33;;;;;;;0.00;0.00;;;6.60;99.90;;;;;;4979221;28;20634;-49
2022/12/30 03:36:09;;;;;;;0.00;0.00;;;6.70;99.90;;;;;;4980708;28;20203;-48
2022/12/30 03:38:40;;;;;;;0.20;0.00;;;6.70;99.90;;;;;;4979821;28;20206;-48
2022/12/30 03:41:08;;;;;;;0.87;0.10;;;6.60;99.90;;;;;;4985502;28;20270;-51
2022/12/30 03:43:36;;;;;;;0.97;0.10;;;6.60;99.90;;;;;;4991627;28;20268;-49
2022/12/30 03:46:03;;;;;;;0.03;0.03;;;6.50;99.90;;;;;;4989538;28;20205;-50
2022/12/30 03:48:30;;;;;;;0.00;0.00;;;6.50;99.90;;;;;;4983965;28;20261;-49
2022/12/30 03:50:57;;;;;;;0.10;0.10;;;6.50;99.90;;;;;;4971062;28;20676;-49
2022/12/30 03:53:26;;;;;;;0.00;0.00;;;6.50;99.90;;;;;;4975868;28;20232;-49
2022/12/30 03:55:53;;;;;;;0.33;0.00;;;6.50;99.90;;;;;;5011423;28;20208;-48
2022/12/30 03:58:20;;;;;;;0.50;0.00;;;6.40;99.90;;;;;;5011466;28;20206;-49
2022/12/30 04:00:47;;;;;;;0.00;0.00;;;6.40;99.90;;;;;;4989903;28;20640;-50
2022/12/30 04:03:14;;;;;;;0.00;0.00;;;6.50;99.90;;;;;;4989435;28;20201;-49
2022/12/30 04:05:41;;;;;;;0.20;0.00;;;6.50;99.90;;;;;;4999770;28;20253;-49
2022/12/30 04:08:08;;;;;;;0.10;0.00;;;6.40;99.90;;;;;;4993683;28;20205;-49
2022/12/30 04:10:36;;;;;;;0.27;0.10;;;6.40;99.90;;;;;;4995364;28;20202;-48
2022/12/30 04:13:03;;;;;;;0.40;0.30;;;6.40;99.90;;;;;;4998977;28;20252;-48
2022/12/30 04:15:30;;;;;;;1.47;0.50;;;6.40;99.90;;;;;;4997707;28;20695;-48
2022/12/30 04:17:57;;;;;;;0.63;0.63;;;6.40;99.90;;;;;;5003326;28;20819;-49
2022/12/30 04:20:24;;;;;;;1.77;0.53;;;6.30;99.90;;;;;;4993477;28;20744;-49
2022/12/30 04:22:51;;;;;;;0.27;0.27;;;6.30;99.90;;;;;;4996696;28;20995;-49
2022/12/30 04:25:18;;;;;;;0.30;0.20;;;6.30;99.90;;;;;;4998899;28;20762;-49
2022/12/30 04:27:46;;;;;;;0.10;0.10;;;6.30;99.90;;;;;;5002674;28;20611;-49
2022/12/30 04:30:14;;;;;;;1.07;0.30;;;6.30;99.90;;;;;;5002614;28;20258;-49
2022/12/30 04:32:41;;;;;;;2.43;0.20;;;6.30;99.90;;;;;;5003036;28;20290;-49
2022/12/30 04:35:09;;;;;;;0.10;0.10;;;6.30;99.90;;;;;;4989452;28;20268;-50
2022/12/30 04:37:36;;;;;;;1.50;0.10;;;6.30;99.90;;;;;;4999844;28;20207;-49
2022/12/30 04:40:03;;;;;;;0.10;0.10;;;6.30;99.90;;;;;;4996797;28;20210;-49
2022/12/30 04:42:30;;;;;;;0.13;0.13;;;6.30;99.90;;;;;;4994359;28;20213;-50
2022/12/30 04:44:59;;;;;;;0.13;0.13;;;6.30;99.90;;;;;;4994706;28;20225;-49
2022/12/30 04:47:25;;;;;;;0.20;0.20;;;6.30;99.90;;;;;;4994420;28;20283;-49
2022/12/30 04:49:52;;;;;;;0.10;0.10;;;6.20;99.90;;;;;;4992215;28;20923;-49
2022/12/30 04:52:19;;;;;;;0.50;0.20;;;6.20;99.90;;;;;;4993860;28;20873;-49
2022/12/30 04:54:46;;;;;;;0.20;0.20;;;6.10;99.90;;;;;;5003741;28;20651;-50
2022/12/30 04:57:13;;;;;;;0.20;0.20;;;6.10;99.90;;;;;;5013979;28;20208;-49
2022/12/30 04:59:40;;;;;;;0.30;0.20;;;6.00;99.90;;;;;;5014122;28;20209;-50
2022/12/30 05:02:09;;;;;;;1.17;0.20;;;6.00;99.90;;;;;;5013765;28;20201;-49
2022/12/30 05:04:36;;;;;;;0.20;0.20;;;6.00;99.90;;;;;;5013857;28;20287;-49
2022/12/30 05:07:03;;;;;;;2.10;0.20;;;5.90;99.90;;;;;;4992233;28;20233;-49
2022/12/30 05:09:30;;;;;;;0.43;0.40;;;5.90;99.90;;;;;;4994241;28;20260;-49
2022/12/30 05:12:01;;;;;;;0.30;0.30;;;6.00;99.90;;;;;;4994018;28;20205;-49
2022/12/30 05:14:28;;;;;;;0.40;0.40;;;6.10;99.90;;;;;;4994058;28;20234;-48
2022/12/30 05:16:55;;;;;;;0.53;0.30;;;6.10;99.90;;;;;;4994107;28;20635;-51
2022/12/30 05:19:23;;;;;;;0.40;0.27;;;6.20;99.90;;;;;;4991424;28;20209;-49
2022/12/30 05:21:50;;;;;;;0.60;0.60;;;6.10;99.90;;;;;;4993709;28;20624;-49
2022/12/30 05:27:01;;;;;;;0.70;0.30;;;5.90;99.90;;;;;;4974854;28;20257;-50
2022/12/30 05:29:28;;;;;;;0.30;0.30;;;5.90;99.90;;;;;;4974261;28;20204;-49
2022/12/30 05:31:58;;;;;;;0.20;0.20;;;5.90;99.90;;;;;;4974022;28;20270;-49
2022/12/30 05:34:27;;;;;;;0.27;0.20;;;5.80;99.90;;;;;;4974101;28;20239;-49
2022/12/30 05:36:54;;;;;;;0.73;0.20;;;5.80;99.90;;;;;;4974482;28;20254;-49
2022/12/30 05:39:21;;;;;;;0.10;0.10;;;5.80;99.90;;;;;;4996279;28;20282;-49
2022/12/30 05:41:48;;;;;;;1.30;0.27;;;5.70;99.90;;;;;;5012791;28;20615;-50
2022/12/30 05:44:15;;;;;;;0.77;0.60;;;5.70;99.90;;;;;;4998967;28;20226;-48
2022/12/30 05:46:42;;;;;;;1.47;0.80;;;5.70;99.90;;;;;;4993432;28;20250;-49
2022/12/30 05:49:09;;;;;;;0.80;0.30;;;5.80;99.90;;;;;;4993597;28;20210;-49
2022/12/30 05:51:37;;;;;;;3.33;0.60;;;5.70;99.90;;;;;;4993100;28;20209;-49
2022/12/30 05:54:04;;;;;;;0.50;0.50;;;5.70;99.90;;;;;;4991994;28;20315;-49
2022/12/30 05:56:31;;;;;;;0.83;0.40;;;5.70;99.90;;;;;;4973403;28;20256;-50
2022/12/30 05:58:58;;;;;;;0.60;0.60;;;5.70;99.90;;;;;;4973292;28;20204;-49
2022/12/30 06:01:25;;;;;;;0.50;0.50;;;5.70;99.90;;;;;;4966407;28;20620;-51
2022/12/30 06:03:56;;;;;;;0.50;0.50;;;5.70;99.90;;;;;;4972720;28;20246;-49
2022/12/30 06:06:24;;;;;;;0.40;0.40;;;5.80;99.90;;;;;;4973895;28;20237;-50
2022/12/30 06:08:52;;;;;;;0.50;0.50;;;5.80;99.90;;;;;;4982139;28;20206;-49
2022/12/30 06:11:20;;;;;;;0.50;0.50;;;5.70;99.90;;;;;;4973229;28;20200;-49
2022/12/30 06:13:47;;;;;;;1.70;0.60;;;5.70;99.90;;;;;;4973182;28;20235;-49
2022/12/30 06:16:14;;;;;;;1.23;0.50;;;5.60;99.90;;;;;;4971647;28;20216;-49
2022/12/30 06:18:41;;;;;;;0.50;0.50;;;5.50;99.90;;;;;;4972302;28;20206;-49
2022/12/30 06:21:08;;;;;;;0.40;0.37;;;5.40;99.90;;;;;;4972773;28;20563;-49
2022/12/30 06:23:36;;;;;;;0.60;0.60;;;5.40;99.90;;;;;;4971949;28;20218;-50
2022/12/30 06:26:05;;;;;;;0.70;0.60;;;5.30;99.90;;;;;;4965175;28;20210;-49
2022/12/30 06:28:32;;;;;;;1.30;0.40;;;5.30;99.90;;;;;;4973262;28;20252;-49
2022/12/30 06:31:02;;;;;;;0.70;0.70;;;5.30;99.90;;;;;;4973121;28;20204;-48
2022/12/30 06:33:29;;;;;;;1.73;0.90;;;5.20;99.90;;;;;;4973095;28;20239;-50
2022/12/30 06:35:56;;;;;;;1.70;1.60;;;5.20;99.90;;;;;;4973538;28;20206;-48
2022/12/30 06:38:23;;;;;;;3.90;3.17;;;5.20;99.90;;;;;;4972005;28;20215;-49
2022/12/30 06:40:50;;;;;;;5.17;4.20;;;5.30;99.90;;;;;;4972611;28;20207;-48
2022/12/30 06:43:18;;;;;;;2.37;2.27;;;5.30;99.90;;;;;;4972713;28;20203;-50
2022/12/30 06:45:46;;;;;;;1.70;1.60;;;5.30;99.90;;;;;;4971140;28;20261;-49
2022/12/30 06:48:13;;;;;;;1.67;1.63;;;5.30;99.90;;;;;;4972120;28;20206;-49
2022/12/30 06:50:40;;;;;;;1.90;1.80;;;5.30;99.90;;;;;;4971819;28;20202;-49
2022/12/30 06:53:07;;;;;;;1.77;1.67;;;5.30;99.90;;;;;;4970682;28;20217;-50
2022/12/30 06:55:34;;;;;;;1.53;1.53;;;5.30;99.90;;;;;;4972424;28;20211;-48
2022/12/30 06:58:02;;;;;;;1.43;1.43;;;5.20;99.90;;;;;;4972473;28;20210;-48
2022/12/30 07:00:30;;;;;;;1.13;1.13;;;5.20;99.90;;;;;;4971864;28;20206;-49
2022/12/30 07:02:57;;;;;;;1.23;1.23;;;5.10;99.90;;;;;;4967996;28;20563;-50
2022/12/30 07:05:24;;;;;;;2.13;1.50;;;5.10;99.90;;;;;;4972896;28;20240;-49
2022/12/30 07:07:51;;;;;;;1.70;1.60;;;5.00;99.90;;;;;;4971333;28;20203;-49
2022/12/30 07:10:19;;;;;;;4.03;1.77;;;5.00;99.90;;;;;;5014545;23;20228;-50
2022/12/30 07:12:46;;;;;;;1.67;1.60;;;4.90;99.90;;;;;;5028844;28;20610;-51
2022/12/30 07:15:13;;;;;;;1.70;1.60;;;4.90;99.90;;;;;;5030164;28;20198;-51
2022/12/30 07:17:41;;;;;;;2.13;2.03;;;5.00;99.90;;;;;;5031125;28;20212;-51
2022/12/30 07:20:11;;;;;;;1.67;1.60;;;5.00;99.90;;;;;;5027468;28;20710;-49
2022/12/30 07:22:38;;;;;;;2.23;2.03;;;5.00;99.90;;;;;;5031222;28;20388;-49
2022/12/30 07:25:06;;;;;;;2.67;2.20;;;5.00;99.90;;;;;;5031072;28;20242;-50
2022/12/30 07:27:33;;;;;;;1.73;1.73;;;4.90;99.90;;;;;;5031172;28;20208;-50
2022/12/30 07:30:00;;;;;;;2.47;2.37;;;4.90;99.90;;;;;;5030356;28;20239;-50
2022/12/30 07:32:27;;;;;;;2.50;2.30;;;4.90;99.90;;;;;;5030014;28;20687;-50
2022/12/30 07:34:56;;;;;;;4.13;3.87;;;5.00;99.90;;;;;;5029315;28;20220;-50
2022/12/30 07:37:23;;;;;;;3.87;3.57;;;5.00;99.90;;;;;;5029592;28;20711;-50
2022/12/30 07:39:50;;;;;;;4.77;4.37;;;5.10;99.90;;;;;;5031118;28;20221;-50
2022/12/30 07:42:17;;;;;;;5.27;4.20;;;5.10;99.90;;;;;;5031429;28;20214;-49
2022/12/30 07:44:44;;;;;;;4.37;4.00;;;5.10;99.90;;;;;;5035035;28;20206;-50
2022/12/30 07:47:11;;;;;;;5.33;4.13;;;5.20;99.90;;;;;;5034819;28;20690;-50
2022/12/30 07:49:38;;;;;;;3.90;3.70;;;5.20;99.90;;;;;;5033068;28;20215;-50
2022/12/30 07:52:07;;;;;;;3.87;3.53;;;5.20;99.90;;;;;;5034489;28;20209;-50
2022/12/30 07:54:37;;;;;;;3.57;3.33;;;5.20;99.90;;;;;;5033527;28;20708;-51
2022/12/30 07:57:04;;;;;;;3.70;3.40;;;5.20;99.90;;;;;;5034558;28;20205;-50
2022/12/30 07:59:31;;;;;;;3.30;2.90;;;5.30;99.90;;;;;;5033705;28;20729;-50
2022/12/30 08:02:01;;;;;;;4.23;3.93;;;5.20;99.90;;;;;;5032791;28;20211;-51
2022/12/30 08:04:28;;;;;;;6.50;5.07;;;5.30;99.90;;;;;;5033578;28;20226;-51
2022/12/30 08:06:57;;;;;;;5.63;5.13;;;5.40;99.90;;;;;;5033753;28;20212;-50
2022/12/30 08:09:26;;;;;;;5.27;4.77;;;5.40;99.90;;;;;;5032893;28;20205;-49
2022/12/30 08:11:53;;;;;;;5.50;4.73;;;5.50;99.90;;;;;;5033464;28;20575;-50
2022/12/30 08:14:22;;;;;;;4.90;4.17;;;5.60;99.90;;;;;;5032581;28;20293;-50
2022/12/30 08:16:49;;;;;;;5.57;4.20;;;5.70;99.90;;;;;;5031414;28;20215;-50
2022/12/30 08:19:16;;;;;;;5.03;4.63;;;5.70;99.90;;;;;;5032038;28;20257;-51
2022/12/30 08:21:43;;;;;;;5.37;4.37;;;5.80;99.90;;;;;;5032204;28;20235;-51
2022/12/30 08:24:10;;;;;;;4.90;4.50;;;5.90;99.90;;;;;;5032867;28;20642;-50
2022/12/30 08:26:39;;;;;;;5.13;4.30;;;6.00;99.90;;;;;;5032506;28;20202;-51
2022/12/30 08:29:06;;;;;;;7.60;5.40;;;6.10;99.90;;;;;;5031923;28;20243;-50
2022/12/30 08:31:33;;;;;;;5.37;4.60;;;6.20;99.90;;;;;;5029948;28;20223;-48
2022/12/30 08:34:00;;;;;;;5.90;5.17;;;6.30;99.90;;;;;;5033475;28;20661;-50
2022/12/30 08:36:29;;;;;;;5.97;4.73;;;6.40;99.90;;;;;;5026935;28;20362;-50
2022/12/30 08:39:00;;;;;;;8.10;6.43;;;6.50;99.90;;;;;;5031076;28;20205;-50
2022/12/30 08:41:32;;;;;;;8.13;5.30;;;6.60;99.90;;;;;;5031386;28;20315;-51
2022/12/30 08:44:01;;;;;;;8.87;5.50;;;6.70;99.90;;;;;;5028817;28;20248;-49
2022/12/30 08:46:32;;;;;;;5.27;4.80;;;6.90;99.90;;;;;;5031416;28;20667;-49
2022/12/30 08:49:00;;;;;;;6.17;4.67;;;7.00;99.90;;;;;;5022068;28;20201;-49
2022/12/30 08:51:28;;;;;;;8.23;4.17;;;7.40;99.90;;;;;;5027888;28;20948;-49
2022/12/30 08:53:55;;;;;;;4.10;3.60;;;7.60;99.90;;;;;;5032687;28;20222;-49
2022/12/30 08:56:27;;;;;;;4.17;3.87;;;7.90;99.90;;;;;;5032040;28;20209;-49
2022/12/30 08:58:58;;;;;;;12.57;6.37;;;8.10;99.90;;;;;;5032498;28;20200;-50
2022/12/30 09:01:28;;;;;;;5.17;4.77;;;8.10;99.90;;;;;;5032109;28;20750;-49
2022/12/30 09:03:56;;;;;;;6.67;6.07;;;8.20;99.90;;;;;;5030920;28;20212;-49
2022/12/30 09:06:25;;;;;;;5.77;5.13;;;8.20;99.90;;;;;;5031184;28;20203;-49
2022/12/30 09:08:53;;;;;;;7.87;4.93;;;8.20;99.90;;;;;;5031931;28;20264;-49
2022/12/30 09:11:26;;;;;;;6.13;5.53;;;8.30;99.90;;;;;;5032229;28;20236;-49
2022/12/30 09:13:53;;;;;;;5.80;4.60;;;8.30;99.90;;;;;;5030731;28;20285;-49
2022/12/30 09:16:22;;;;;;;3.40;3.20;;;8.40;99.90;;;;;;5033179;28;20200;-49
2022/12/30 09:18:51;;;;;;;4.03;3.33;;;8.70;99.90;;;;;;5030751;28;20484;-50
2022/12/30 09:21:18;;;;;;;3.00;2.80;;;9.20;99.90;;;;;;5032238;28;20223;-50
2022/12/30 09:23:45;;;;;;;4.30;3.50;;;9.40;99.90;;;;;;5032368;28;20198;-51
2022/12/30 09:26:15;;;;;;;4.90;3.40;;;9.40;99.90;;;;;;5032321;28;20267;-51
2022/12/30 09:28:42;;;;;;;4.07;3.77;;;9.30;99.90;;;;;;5032355;28;20315;-51
2022/12/30 09:31:10;;;;;;;4.30;3.80;;;9.20;99.90;;;;;;5032842;28;20271;-50
2022/12/30 09:33:37;;;;;;;3.00;2.70;;;9.30;99.90;;;;;;5030355;28;20575;-51
2022/12/30 09:36:07;;;;;;;2.40;2.13;;;9.10;99.90;;;;;;5033149;28;20208;-51
2022/12/30 09:38:34;;;;;;;2.17;1.97;;;9.10;99.90;;;;;;5033114;28;20204;-50
2022/12/30 09:41:06;;;;;;;2.00;1.90;;;9.00;99.90;;;;;;5032757;28;20218;-50
2022/12/30 09:43:36;;;;;;;3.03;2.63;;;8.90;99.90;;;;;;5032738;28;20317;-50
2022/12/30 09:46:28;;;;;;;2.50;2.30;;;8.90;99.90;;;;;;5032071;28;20192;-50
2022/12/30 09:49:01;;;;;;;2.87;2.67;;;8.80;99.90;;;;;;5031970;28;20212;-50
2022/12/30 09:51:34;;;;;;;2.50;2.40;;;8.70;99.90;;;;;;5031769;28;20318;-51
2022/12/30 09:54:07;;;;;;;2.97;2.87;;;8.50;99.90;;;;;;5032230;28;20220;-50
2022/12/30 09:56:37;;;;;;;2.53;2.43;;;8.50;99.90;;;;;;5032539;28;20198;-50
2022/12/30 09:59:10;;;;;;;3.30;3.00;;;8.60;99.90;;;;;;5031644;28;20202;-51
2022/12/30 10:01:42;;;;;;;2.93;2.73;;;8.70;99.90;;;;;;5032033;28;20290;-50
2022/12/30 10:04:15;;;;;;;4.57;3.33;;;8.70;99.90;;;;;;5032136;28;20204;-51
2022/12/30 10:06:53;;;;;;;2.73;2.53;;;8.80;99.90;;;;;;5031670;28;20208;-50
2022/12/30 10:09:45;;;;;;;2.30;2.17;;;8.80;99.90;;;;;;5032267;28;20690;-49
2022/12/30 10:12:37;;;;;;;2.77;2.67;;;9.00;99.90;;;;;;5030557;28;20212;-51
2022/12/30 10:15:27;;;;;;;2.53;2.40;;;9.30;99.90;;;;;;5024898;28;20214;-50
2022/12/30 10:18:20;;;;;;;3.17;2.97;;;9.80;99.90;;;;;;5030904;28;20680;-50
2022/12/30 10:21:00;;;;;;;4.70;3.43;;;10.30;99.90;;;;;;5031758;28;20278;-50
2022/12/30 10:23:45;;;;;;;2.80;2.60;;;10.80;99.90;;;;;;5031534;28;20573;-52
2022/12/30 10:26:16;;;;;;;2.33;2.23;;;11.20;99.90;;;;;;5031257;28;20232;-53
2022/12/30 10:28:47;;;;;;;1.80;1.80;;;11.80;99.90;;;;;;5031473;28;20672;-52
2022/12/30 10:31:19;;;;;;;2.37;2.27;;;12.30;99.90;;;;;;5032082;28;20233;-52
2022/12/30 10:33:48;;;;;;;2.43;2.33;;;12.70;99.90;;;;;;5031897;28;20247;-52
2022/12/30 10:36:19;;;;;;;3.53;2.17;;;12.80;99.90;;;;;;5031998;28;20259;-51
2022/12/30 10:38:47;;;;;;;2.03;1.93;;;12.80;99.90;;;;;;5031942;28;20559;-52
2022/12/30 10:41:39;;;;;;;1.57;1.50;;;12.70;99.90;;;;;;5030776;28;20286;-52
2022/12/30 10:44:18;;;;;;;3.27;1.50;;;12.60;99.90;;;;;;5028807;28;20193;-52
2022/12/30 10:47:02;;;;;;;1.30;1.20;;;12.00;99.90;;;;;;5031775;28;20749;-53
2022/12/30 10:50:01;;;;;;;2.30;2.00;;;11.50;99.90;;;;;;5030104;28;20667;-52
2022/12/30 10:52:28;;;;;;;1.67;1.57;;;11.10;99.90;;;;;;5007634;28;20212;-52
2022/12/30 10:54:57;;;;;;;2.50;2.37;;;10.90;99.90;;;;;;5031687;28;20228;-52
2022/12/30 10:57:28;;;;;;;2.07;1.97;;;10.70;99.90;;;;;;5031765;28;20205;-52
2022/12/30 10:59:58;;;;;;;1.83;1.73;;;10.70;99.90;;;;;;5029942;28;20220;-53
2022/12/30 11:02:33;;;;;;;2.20;2.10;;;10.70;99.90;;;;;;5030381;28;20202;-51
2022/12/30 11:05:01;;;;;;;1.90;1.73;;;10.70;99.90;;;;;;5023722;28;20223;-52
2022/12/30 11:07:28;;;;;;;1.77;1.67;;;10.60;99.90;;;;;;5031656;28;20239;-52
2022/12/30 11:09:56;;;;;;;2.10;2.00;;;10.60;99.90;;;;;;5030962;28;20239;-52
2022/12/30 11:15:22;;;;;;;3.43;3.13;;;10.50;99.90;;;;;;5025589;28;20226;-52
2022/12/30 11:17:51;;;;;;;3.20;2.83;;;10.40;99.90;;;;;;5032206;28;20255;-51
2022/12/30 11:20:31;;;;;;;2.53;2.43;;;10.50;99.90;;;;;;5034089;28;20282;-52
2022/12/30 11:23:00;;;;;;;2.60;2.50;;;10.50;99.90;;;;;;5030319;28;20196;-53
2022/12/30 11:25:33;;;;;;;1.93;1.93;;;10.50;99.90;;;;;;5033752;28;20205;-51
2022/12/30 11:28:02;;;;;;;2.80;2.50;;;10.50;99.90;;;;;;5035146;28;20236;-53
2022/12/30 11:30:32;;;;;;;1.73;1.63;;;10.50;99.90;;;;;;5035159;28;20232;-52
2022/12/30 11:33:02;;;;;;;2.10;2.00;;;10.40;99.90;;;;;;5034119;28;20626;-52
2022/12/30 11:35:38;;;;;;;2.30;1.40;;;10.40;99.90;;;;;;5036872;28;20225;-52
2022/12/30 11:38:26;;;;;;;1.53;1.43;;;10.40;99.90;;;;;;5032013;28;20218;-52
2022/12/30 11:40:54;;;;;;;1.60;1.50;;;10.20;99.90;;;;;;5031175;28;20585;-51
2022/12/30 11:43:22;;;;;;;1.77;1.67;;;10.20;99.90;;;;;;5033853;28;20680;-52
2022/12/30 11:46:03;;;;;;;2.03;1.93;;;10.20;99.90;;;;;;5031631;28;20198;-52
2022/12/30 11:48:33;;;;;;;2.63;2.20;;;10.10;99.90;;;;;;5031672;28;20633;-52
2022/12/30 11:51:05;;;;;;;1.63;1.53;;;10.10;99.90;;;;;;5032621;28;20248;-53
2022/12/30 11:53:36;;;;;;;2.47;1.43;;;10.20;99.90;;;;;;5032295;28;20208;-53
2022/12/30 11:56:05;;;;;;;1.87;1.77;;;10.10;99.90;;;;;;5030610;28;20215;-52
2022/12/30 11:58:35;;;;;;;1.97;1.87;;;10.20;99.90;;;;;;5033602;28;20721;-53
2022/12/30 12:01:05;;;;;;;4.33;2.60;;;10.20;99.90;;;;;;5034336;28;20222;-52
2022/12/30 12:03:32;;;;;;;2.17;2.07;;;10.20;99.90;;;;;;5031886;28;20205;-52
2022/12/30 12:06:10;;;;;;;3.03;1.63;;;10.30;99.90;;;;;;5033576;28;20657;-52
2022/12/30 12:08:44;;;;;;;1.40;1.33;;;10.20;99.90;;;;;;5032985;28;20675;-52
2022/12/30 12:11:16;;;;;;;3.23;1.53;;;10.20;99.90;;;;;;5028202;28;20225;-53
2022/12/30 12:13:53;;;;;;;1.60;1.53;;;10.20;99.90;;;;;;5033563;28;20587;-51
2022/12/30 12:16:33;;;;;;;2.63;1.30;;;10.10;99.90;;;;;;5033879;28;20232;-52
2022/12/30 12:19:09;;;;;;;2.92;1.65;;;10.10;99.90;;;;;;5025187;28;20437;-52
2022/12/30 12:21:40;;;;;;;1.73;1.50;;;10.10;99.90;;;;;;5027989;28;20221;-53
2022/12/30 12:24:16;;;;;;;1.37;1.30;;;10.20;99.90;;;;;;5016381;28;20309;-52
2022/12/30 12:26:52;;;;;;;1.73;1.63;;;10.30;99.90;;;;;;5030938;28;20200;-51
2022/12/30 12:29:19;;;;;;;2.27;2.07;;;10.20;99.90;;;;;;5033789;28;20208;-52
2022/12/30 12:32:21;;;;;;;10.07;1.53;;;10.30;99.90;;;;;;5033051;28;20220;-52
2022/12/30 12:35:01;;;;;;;1.27;1.27;;;10.30;99.90;;;;;;5031786;28;20289;-52
2022/12/30 12:37:41;;;;;;;1.97;1.20;;;10.30;99.90;;;;;;5032519;28;20198;-52
2022/12/30 12:40:43;;;;;;;2.83;1.23;;;10.30;99.90;;;;;;5027609;28;20229;-52
2022/12/30 12:43:17;;;;;;;0.90;0.90;;;10.40;99.90;;;;;;5027287;28;20200;-52
2022/12/30 12:46:11;;;;;;;2.60;1.73;;;10.50;99.90;;;;;;5031727;28;20200;-52
2022/12/30 12:49:01;;;;;;;2.20;1.10;;;10.50;99.90;;;;;;5029591;28;20260;-51
2022/12/30 12:51:41;;;;;;;2.73;1.10;;;10.50;99.90;;;;;;5008572;28;20228;-50
2022/12/30 12:54:55;;;;;;;2.00;1.03;;;10.50;99.90;;;;;;5030118;28;20209;-50
2022/12/30 12:57:35;;;;;;;3.33;2.07;;;10.70;99.90;;;;;;4970119;28;20737;-50
2022/12/30 13:00:10;;;;;;;1.37;1.37;;;10.70;99.90;;;;;;4965902;28;20220;-50
2022/12/30 13:03:18;;;;;;;2.00;1.87;;;10.60;99.90;;;;;;5005243;28;20208;-51
2022/12/30 13:05:56;;;;;;;2.00;1.90;;;10.30;99.90;;;;;;5030392;28;20734;-51
2022/12/30 13:08:36;;;;;;;2.43;2.33;;;10.20;99.90;;;;;;5030801;28;20252;-51
2022/12/30 13:11:12;;;;;;;2.33;2.23;;;10.10;99.90;;;;;;5024930;28;20224;-50
2022/12/30 13:13:54;;;;;;;3.20;2.70;;;10.00;99.90;;;;;;5032207;28;20207;-51
2022/12/30 13:16:28;;;;;;;4.40;3.00;;;10.00;99.90;;;;;;5033104;28;20228;-51
2022/12/30 13:18:57;;;;;;;3.33;3.10;;;9.80;99.90;;;;;;5032159;28;20206;-50
2022/12/30 13:21:26;;;;;;;2.67;2.47;;;9.70;99.90;;;;;;5032995;28;20227;-53
2022/12/30 13:23:57;;;;;;;2.20;2.10;;;9.80;99.90;;;;;;5030213;28;20666;-52
2022/12/30 13:26:28;;;;;;;2.37;2.20;;;9.70;99.90;;;;;;5032997;28;20200;-52
2022/12/30 13:28:58;;;;;;;3.77;3.30;;;9.60;99.90;;;;;;5032076;28;20702;-51
2022/12/30 13:31:46;;;;;;;4.13;2.50;;;9.50;99.90;;;;;;5031979;28;20218;-52
2022/12/30 13:34:30;;;;;;;1.60;1.50;;;9.40;99.90;;;;;;5030988;28;20198;-52
2022/12/30 13:37:08;;;;;;;2.33;2.13;;;9.30;99.90;;;;;;5046814;22;20235;-53
2022/12/30 13:39:42;;;;;;;2.20;2.10;;;9.10;99.90;;;;;;4995521;28;20199;-53
2022/12/30 13:42:42;;;;;;;2.10;2.00;;;9.10;99.90;;;;;;4990755;28;20205;-53
2022/12/30 13:45:24;;;;;;;3.00;1.80;;;9.10;99.90;;;;;;4990236;28;20668;-53
2022/12/30 13:48:01;;;;;;;2.50;2.33;;;9.10;99.90;;;;;;4991961;28;20848;-53
2022/12/30 13:50:31;;;;;;;2.77;2.47;;;9.10;99.90;;;;;;4991902;28;20206;-53
2022/12/30 13:53:00;;;;;;;2.00;1.90;;;9.10;99.90;;;;;;4987192;28;20203;-53
2022/12/30 13:55:31;;;;;;;5.33;2.50;;;9.00;99.90;;;;;;4987138;28;20237;-53
2022/12/30 13:58:08;;;;;;;2.37;2.17;;;9.00;99.90;;;;;;4989908;28;20247;-53
2022/12/30 14:00:38;;;;;;;1.83;1.73;;;8.90;99.90;;;;;;4988207;28;20228;-54
2022/12/30 14:03:13;;;;;;;2.20;2.10;;;9.00;99.90;;;;;;4988732;28;20233;-53
2022/12/30 14:06:00;;;;;;;2.13;2.03;;;8.90;99.90;;;;;;4991348;28;20258;-53
2022/12/30 14:08:48;;;;;;;2.80;2.60;;;8.90;99.90;;;;;;4989917;28;20228;-53
2022/12/30 14:11:18;;;;;;;7.90;3.43;;;8.90;99.90;;;;;;4985838;28;20209;-53
2022/12/30 14:14:05;;;;;;;10.53;6.03;;;8.90;99.90;;;;;;4985038;28;20205;-50